Time;durP1;ratioP1;P1;durP2;ratioP2;P2;SDS_P1;SDS_P2;PMS_P1;PMS_P2;Temp;Humidity;BMP_temperature;BMP_pressure;BME280_temperature;BME280_humidity;BME280_pressure;Samples;Min_cycle;Max_cycle;Signal;HPM_P1;HPM_P2
2023/05/29 00:00:33;;;;;;;78.40;12.53;;;19.10;99.90;;;;;;4947900;28;20193;-74
2023/05/29 00:03:01;;;;;;;74.13;10.83;;;19.10;99.90;;;;;;4958735;28;20309;-74
2023/05/29 00:05:27;;;;;;;88.60;12.23;;;19.10;99.90;;;;;;4962076;28;20222;-75
2023/05/29 00:07:53;;;;;;;94.63;14.10;;;19.10;99.90;;;;;;4961545;28;20634;-75
2023/05/29 00:10:20;;;;;;;65.43;11.93;;;19.10;99.90;;;;;;4949518;28;20875;-75
2023/05/29 00:12:46;;;;;;;88.60;12.97;;;19.10;99.90;;;;;;4958818;28;20210;-76
2023/05/29 00:15:12;;;;;;;88.27;13.17;;;19.10;99.90;;;;;;4988445;28;20207;-75
2023/05/29 00:17:40;;;;;;;83.80;12.37;;;19.10;99.90;;;;;;4961565;28;20217;-76
2023/05/29 00:20:09;;;;;;;79.93;11.67;;;19.10;99.90;;;;;;4948020;28;20197;-75
2023/05/29 00:22:39;;;;;;;85.33;12.40;;;19.10;99.90;;;;;;4981284;28;20266;-75
2023/05/29 00:25:07;;;;;;;91.03;12.77;;;19.10;99.90;;;;;;4962826;28;20234;-75
2023/05/29 00:27:34;;;;;;;89.67;13.17;;;19.10;99.90;;;;;;4960052;28;20212;-75
2023/05/29 00:30:02;;;;;;;93.07;13.50;;;19.10;99.90;;;;;;4953566;28;20233;-75
2023/05/29 00:32:29;;;;;;;90.43;12.60;;;19.10;99.90;;;;;;4954994;28;20199;-75
2023/05/29 00:34:55;;;;;;;89.80;12.90;;;19.10;99.90;;;;;;4961148;28;20285;-75
2023/05/29 00:37:22;;;;;;;76.60;12.00;;;19.10;99.90;;;;;;4961697;28;20202;-76
2023/05/29 00:39:49;;;;;;;85.57;11.87;;;19.10;99.90;;;;;;4972373;28;20204;-75
2023/05/29 00:42:15;;;;;;;89.03;11.57;;;19.10;99.90;;;;;;4968780;28;20218;-75
2023/05/29 00:44:42;;;;;;;78.97;11.93;;;19.10;99.90;;;;;;4958917;28;20194;-75
2023/05/29 00:47:08;;;;;;;83.53;10.73;;;19.10;99.90;;;;;;4963405;28;20197;-76
2023/05/29 00:49:37;;;;;;;58.10;10.23;;;19.10;99.90;;;;;;4960253;28;20264;-76
2023/05/29 00:52:07;;;;;;;71.63;9.33;;;19.00;99.90;;;;;;4953951;28;20223;-76
2023/05/29 00:54:35;;;;;;;56.30;9.50;;;18.90;99.90;;;;;;4958408;28;20199;-76
2023/05/29 00:57:04;;;;;;;54.40;8.67;;;18.90;99.90;;;;;;4965161;28;20227;-75
2023/05/29 00:59:33;;;;;;;59.87;8.80;;;18.90;99.90;;;;;;4947510;28;20244;-76
2023/05/29 01:02:02;;;;;;;52.90;8.97;;;18.90;99.90;;;;;;4956501;28;20614;-76
2023/05/29 01:04:28;;;;;;;63.50;9.30;;;18.90;99.90;;;;;;4960256;28;20213;-77
2023/05/29 01:06:56;;;;;;;61.53;8.63;;;18.80;99.90;;;;;;4956637;28;20201;-77
2023/05/29 01:09:23;;;;;;;57.43;8.80;;;18.80;99.90;;;;;;4971816;28;20535;-76
2023/05/29 01:12:37;;;;;;;47.63;7.90;;;18.80;99.90;;;;;;4953300;28;20199;-77
2023/05/29 01:15:11;;;;;;;70.27;8.40;;;18.70;99.90;;;;;;4916594;29;20192;-76
2023/05/29 01:17:53;;;;;;;58.00;7.80;;;18.70;99.90;;;;;;4967354;28;20224;-76
2023/05/29 01:20:35;;;;;;;46.23;8.00;;;18.70;99.90;;;;;;4958882;28;20194;-76
2023/05/29 01:23:34;;;;;;;62.60;8.80;;;18.70;99.90;;;;;;4983797;28;20211;-76
2023/05/29 01:26:06;;;;;;;48.57;7.87;;;18.70;99.90;;;;;;4971022;28;20202;-76
2023/05/29 01:28:47;;;;;;;58.33;8.30;;;18.70;99.90;;;;;;4954340;28;20241;-76
2023/05/29 01:31:18;;;;;;;52.83;7.33;;;18.70;99.90;;;;;;4968969;28;20225;-76
2023/05/29 01:34:01;;;;;;;47.17;7.60;;;18.70;99.90;;;;;;4956918;28;20758;-76
2023/05/29 01:36:28;;;;;;;52.33;8.17;;;18.60;99.90;;;;;;4951598;28;20270;-76
2023/05/29 01:38:58;;;;;;;56.17;7.37;;;18.60;99.90;;;;;;4959415;28;20561;-75
2023/05/29 01:41:26;;;;;;;56.50;7.60;;;18.60;99.90;;;;;;4956844;28;20198;-75
2023/05/29 01:43:53;;;;;;;50.80;7.00;;;18.60;99.90;;;;;;4951072;28;20222;-75
2023/05/29 01:46:21;;;;;;;63.83;8.33;;;18.60;99.90;;;;;;4958026;28;20304;-76
2023/05/29 01:48:48;;;;;;;36.93;6.93;;;18.60;99.90;;;;;;4957901;28;20241;-76
2023/05/29 01:51:15;;;;;;;49.43;7.30;;;18.60;99.90;;;;;;4953425;28;20666;-76
2023/05/29 01:53:42;;;;;;;54.63;7.67;;;18.70;99.90;;;;;;4957490;28;20198;-76
2023/05/29 01:56:10;;;;;;;47.00;6.77;;;18.70;99.90;;;;;;4950050;28;20190;-76
2023/05/29 01:58:40;;;;;;;43.43;6.33;;;18.60;99.90;;;;;;4935717;28;20495;-76
2023/05/29 02:01:07;;;;;;;40.67;6.77;;;18.70;99.90;;;;;;4951965;28;20191;-76
2023/05/29 02:03:35;;;;;;;48.47;6.90;;;18.70;99.90;;;;;;4955250;28;20213;-75
2023/05/29 02:06:01;;;;;;;39.23;6.37;;;18.70;99.90;;;;;;4950758;28;20199;-76
2023/05/29 02:08:28;;;;;;;39.73;6.50;;;18.70;99.90;;;;;;4935617;28;20193;-76
2023/05/29 02:10:54;;;;;;;40.90;6.53;;;18.70;99.90;;;;;;4939280;28;20301;-76
2023/05/29 02:13:20;;;;;;;46.13;5.90;;;18.70;99.90;;;;;;4960900;28;20225;-76
2023/05/29 02:15:47;;;;;;;26.80;5.77;;;18.70;99.90;;;;;;4966265;28;21051;-74
2023/05/29 02:18:20;;;;;;;41.67;7.73;;;18.70;99.90;;;;;;4953014;28;20326;-74
2023/05/29 02:20:46;;;;;;;39.97;6.27;;;18.70;99.90;;;;;;4953495;28;20241;-75
2023/05/29 02:23:12;;;;;;;46.37;6.37;;;18.70;99.90;;;;;;4953585;28;20210;-74
2023/05/29 02:25:40;;;;;;;39.97;6.13;;;18.70;99.90;;;;;;4950517;28;20210;-74
2023/05/29 02:28:06;;;;;;;43.93;6.40;;;18.70;99.90;;;;;;4954187;28;21019;-75
2023/05/29 02:30:32;;;;;;;41.47;6.20;;;18.60;99.90;;;;;;4956443;28;20229;-75
2023/05/29 02:32:58;;;;;;;36.90;6.00;;;18.60;99.90;;;;;;4953213;28;20233;-75
2023/05/29 02:35:25;;;;;;;33.20;5.60;;;18.60;99.90;;;;;;4953450;28;20210;-75
2023/05/29 02:37:52;;;;;;;31.83;5.20;;;18.60;99.90;;;;;;4955158;28;20222;-75
2023/05/29 02:40:19;;;;;;;32.60;5.37;;;18.60;99.90;;;;;;4951998;28;20190;-75
2023/05/29 02:42:47;;;;;;;27.43;5.00;;;18.60;99.90;;;;;;4966006;28;20234;-76
2023/05/29 02:45:13;;;;;;;23.93;4.23;;;18.50;99.90;;;;;;4950664;28;20198;-75
2023/05/29 02:47:39;;;;;;;30.07;5.37;;;18.50;99.90;;;;;;4953269;28;20225;-75
2023/05/29 02:50:06;;;;;;;29.90;5.40;;;18.50;99.90;;;;;;4957412;28;20198;-75
2023/05/29 02:52:32;;;;;;;29.73;4.57;;;18.40;99.90;;;;;;4957451;28;20268;-75
2023/05/29 02:54:59;;;;;;;20.07;4.13;;;18.40;99.90;;;;;;4955547;28;20198;-76
2023/05/29 02:57:26;;;;;;;28.27;4.50;;;18.40;99.90;;;;;;4953164;28;20285;-75
2023/05/29 02:59:52;;;;;;;21.20;3.47;;;18.40;99.90;;;;;;4953396;28;20281;-75
2023/05/29 03:02:18;;;;;;;18.70;4.03;;;18.30;99.90;;;;;;4957164;28;20296;-76
2023/05/29 03:04:45;;;;;;;20.53;3.70;;;18.30;99.90;;;;;;4956312;28;20542;-75
2023/05/29 03:07:12;;;;;;;25.37;3.60;;;18.30;99.90;;;;;;4950287;28;20198;-75
2023/05/29 03:09:38;;;;;;;23.17;3.57;;;18.30;99.90;;;;;;4957563;28;20609;-75
2023/05/29 03:12:06;;;;;;;19.70;3.10;;;18.30;99.90;;;;;;4955379;28;20278;-75
2023/05/29 03:14:36;;;;;;;21.37;3.87;;;18.30;99.90;;;;;;4982148;28;20214;-75
2023/05/29 03:17:07;;;;;;;17.13;3.63;;;18.30;99.90;;;;;;4963534;28;20789;-75
2023/05/29 03:19:34;;;;;;;22.63;3.50;;;18.20;99.90;;;;;;4960997;28;20195;-75
2023/05/29 03:22:00;;;;;;;18.57;3.90;;;18.20;99.90;;;;;;4982067;28;20217;-76
2023/05/29 03:24:27;;;;;;;15.80;3.17;;;18.20;99.90;;;;;;4958797;28;20521;-75
2023/05/29 03:26:53;;;;;;;18.50;3.63;;;18.20;99.90;;;;;;4958723;28;20194;-76
2023/05/29 03:29:19;;;;;;;20.87;3.43;;;18.20;99.90;;;;;;4983858;28;20198;-76
2023/05/29 03:31:46;;;;;;;15.57;3.97;;;18.20;99.90;;;;;;4975988;28;20194;-75
2023/05/29 03:34:13;;;;;;;29.13;3.67;;;18.30;99.90;;;;;;4959607;28;20182;-75
2023/05/29 03:36:39;;;;;;;18.70;3.80;;;18.30;99.90;;;;;;4957235;28;20183;-75
2023/05/29 03:39:06;;;;;;;22.37;3.20;;;18.30;99.90;;;;;;4957247;28;20736;-75
2023/05/29 03:41:32;;;;;;;18.33;3.50;;;18.30;99.90;;;;;;4956004;28;20595;-75
2023/05/29 03:43:59;;;;;;;24.83;3.37;;;18.30;99.90;;;;;;4954816;28;21272;-75
2023/05/29 03:46:25;;;;;;;18.50;3.60;;;18.30;99.90;;;;;;4957292;28;20206;-75
2023/05/29 03:48:51;;;;;;;17.73;3.50;;;18.40;99.90;;;;;;4981262;28;20660;-75
2023/05/29 03:51:17;;;;;;;15.30;3.33;;;18.40;99.90;;;;;;4955240;28;20205;-74
2023/05/29 03:53:43;;;;;;;16.03;3.10;;;18.40;99.90;;;;;;4953197;28;20232;-75
2023/05/29 03:56:10;;;;;;;27.03;3.80;;;18.40;99.90;;;;;;4958307;28;20224;-74
2023/05/29 03:58:36;;;;;;;21.57;3.17;;;18.40;99.90;;;;;;4954333;28;21040;-74
2023/05/29 04:01:03;;;;;;;17.97;3.40;;;18.40;99.90;;;;;;4953098;28;20200;-75
2023/05/29 04:03:30;;;;;;;21.13;3.63;;;18.50;99.90;;;;;;4953467;28;20207;-75
2023/05/29 04:05:56;;;;;;;15.57;3.20;;;18.50;99.90;;;;;;4955469;28;20236;-75
2023/05/29 04:08:23;;;;;;;24.37;3.57;;;18.50;99.90;;;;;;4945854;28;20604;-75
2023/05/29 04:10:53;;;;;;;16.60;3.40;;;18.60;99.90;;;;;;4955566;28;20201;-74
2023/05/29 04:13:20;;;;;;;18.53;3.40;;;18.60;99.90;;;;;;4943306;28;20201;-74
2023/05/29 04:15:47;;;;;;;15.23;2.90;;;18.60;99.90;;;;;;4959222;28;20289;-76
2023/05/29 04:18:13;;;;;;;16.40;3.20;;;18.60;99.90;;;;;;4971216;28;20206;-76
2023/05/29 04:20:40;;;;;;;14.93;3.20;;;18.60;99.90;;;;;;4954636;28;20195;-75
2023/05/29 04:23:06;;;;;;;18.13;3.90;;;18.60;99.90;;;;;;4958156;28;20936;-74
2023/05/29 04:25:34;;;;;;;15.80;3.03;;;18.50;99.90;;;;;;4957142;28;20273;-74
2023/05/29 04:28:02;;;;;;;16.13;3.50;;;18.50;99.90;;;;;;4980238;28;20515;-74
2023/05/29 04:30:28;;;;;;;21.00;3.40;;;18.50;99.90;;;;;;4958007;28;20186;-74
2023/05/29 04:32:54;;;;;;;15.70;3.33;;;18.60;99.90;;;;;;4959344;28;20199;-74
2023/05/29 04:35:21;;;;;;;14.60;3.03;;;18.50;99.90;;;;;;4956956;28;20534;-74
2023/05/29 04:37:49;;;;;;;14.03;3.23;;;18.60;99.90;;;;;;4973452;28;20203;-75
2023/05/29 04:40:17;;;;;;;15.13;3.27;;;18.60;99.90;;;;;;4960876;28;20565;-75
2023/05/29 04:42:46;;;;;;;17.47;3.10;;;18.70;99.90;;;;;;4973485;28;20338;-75
2023/05/29 04:45:12;;;;;;;13.77;2.90;;;18.70;99.90;;;;;;4956036;28;20193;-75
2023/05/29 04:47:48;;;;;;;12.87;2.60;;;18.70;99.90;;;;;;4960606;28;20190;-74
2023/05/29 04:50:17;;;;;;;15.97;3.53;;;18.70;99.90;;;;;;4960582;28;20208;-75
2023/05/29 04:52:44;;;;;;;19.13;2.73;;;18.70;99.90;;;;;;4952571;28;20194;-76
2023/05/29 04:55:10;;;;;;;15.10;2.70;;;18.70;99.90;;;;;;4953531;28;20190;-76
2023/05/29 04:57:37;;;;;;;13.63;3.37;;;18.70;99.90;;;;;;4961255;28;20225;-76
2023/05/29 05:00:13;;;;;;;18.17;3.53;;;18.70;99.90;;;;;;4954373;28;20182;-76
2023/05/29 05:02:45;;;;;;;15.70;2.97;;;18.70;99.90;;;;;;4958144;28;20218;-75
2023/05/29 05:05:12;;;;;;;10.97;2.67;;;18.70;99.90;;;;;;4952464;28;20227;-75
2023/05/29 05:07:38;;;;;;;10.63;3.33;;;18.80;99.90;;;;;;4961195;28;20649;-75
2023/05/29 05:10:06;;;;;;;15.80;3.10;;;18.90;99.90;;;;;;4957263;28;20189;-75
2023/05/29 05:12:32;;;;;;;17.30;3.07;;;18.90;99.90;;;;;;4951762;28;20193;-75
2023/05/29 05:14:58;;;;;;;18.43;2.77;;;19.00;99.90;;;;;;4984772;28;20194;-75
2023/05/29 05:17:25;;;;;;;19.10;3.10;;;19.10;99.90;;;;;;4958934;28;20198;-75
2023/05/29 05:19:53;;;;;;;15.53;3.13;;;19.10;99.90;;;;;;4953268;28;20862;-75
2023/05/29 05:22:19;;;;;;;14.07;2.63;;;19.10;99.90;;;;;;4957397;28;20625;-75
2023/05/29 05:24:47;;;;;;;14.50;2.80;;;19.10;99.90;;;;;;4955841;28;20194;-75
2023/05/29 05:27:14;;;;;;;10.10;2.73;;;19.20;99.90;;;;;;4951807;28;20217;-75
2023/05/29 05:29:40;;;;;;;14.73;2.90;;;19.20;99.90;;;;;;4953618;28;20735;-75
2023/05/29 05:32:06;;;;;;;18.53;3.00;;;19.30;99.90;;;;;;4961555;28;20220;-75
2023/05/29 05:34:33;;;;;;;17.50;2.87;;;19.30;99.90;;;;;;4955657;28;20826;-75
2023/05/29 05:37:00;;;;;;;11.93;2.80;;;19.40;99.90;;;;;;4951903;28;20194;-74
2023/05/29 05:39:26;;;;;;;17.43;2.57;;;19.50;99.90;;;;;;4957089;28;20225;-76
2023/05/29 05:41:52;;;;;;;13.47;2.80;;;19.50;99.90;;;;;;4954635;28;20217;-76
2023/05/29 05:44:18;;;;;;;12.90;2.67;;;19.60;99.90;;;;;;4960513;28;20206;-76
2023/05/29 05:46:45;;;;;;;12.57;2.53;;;19.60;99.90;;;;;;4954426;28;20211;-76
2023/05/29 05:49:12;;;;;;;16.23;2.50;;;19.60;99.90;;;;;;4957367;28;21099;-76
2023/05/29 05:51:38;;;;;;;11.83;2.67;;;19.60;99.90;;;;;;4952555;28;20672;-76
2023/05/29 05:54:04;;;;;;;12.40;2.73;;;19.70;99.90;;;;;;4980944;28;20579;-75
2023/05/29 05:56:31;;;;;;;10.30;2.27;;;19.80;99.90;;;;;;4957454;28;20554;-75
2023/05/29 05:58:57;;;;;;;9.43;2.53;;;19.80;99.90;;;;;;4964460;28;20578;-75
2023/05/29 06:01:23;;;;;;;10.73;2.87;;;19.80;99.90;;;;;;4950690;28;20822;-76
2023/05/29 06:03:49;;;;;;;9.03;2.23;;;19.90;99.90;;;;;;4950770;28;20214;-75
2023/05/29 06:06:17;;;;;;;15.17;2.33;;;19.90;99.90;;;;;;4952261;28;20685;-75
2023/05/29 06:08:45;;;;;;;12.10;2.40;;;19.90;99.90;;;;;;4958994;28;20195;-76
2023/05/29 06:11:11;;;;;;;10.20;2.30;;;20.00;99.90;;;;;;4952507;28;21189;-75
2023/05/29 06:13:37;;;;;;;15.33;2.73;;;20.00;99.90;;;;;;4951751;28;20190;-75
2023/05/29 06:16:04;;;;;;;8.63;2.20;;;19.90;99.90;;;;;;4947972;28;20281;-75
2023/05/29 06:18:31;;;;;;;12.80;2.33;;;20.00;99.90;;;;;;4951581;28;20229;-75
2023/05/29 06:20:57;;;;;;;7.73;2.23;;;20.00;99.90;;;;;;4955718;28;20202;-75
2023/05/29 06:23:23;;;;;;;12.53;2.83;;;20.10;99.90;;;;;;4950530;28;20217;-74
2023/05/29 06:25:49;;;;;;;13.20;2.50;;;20.10;99.90;;;;;;4981663;28;20337;-75
2023/05/29 06:28:15;;;;;;;15.70;2.83;;;20.10;99.90;;;;;;4951929;28;20190;-75
2023/05/29 06:30:42;;;;;;;12.53;2.70;;;20.10;99.90;;;;;;4954116;28;20189;-75
2023/05/29 06:33:08;;;;;;;26.10;3.00;;;20.20;99.90;;;;;;4971431;28;20203;-75
2023/05/29 06:35:34;;;;;;;17.03;2.70;;;20.20;99.90;;;;;;4966883;28;20890;-75
2023/05/29 06:38:00;;;;;;;16.37;3.00;;;20.20;99.90;;;;;;4966425;28;20217;-75
2023/05/29 06:40:26;;;;;;;16.63;2.87;;;20.20;99.90;;;;;;4956459;28;20206;-75
2023/05/29 06:42:53;;;;;;;15.70;2.57;;;20.30;99.90;;;;;;4950790;28;20277;-75
2023/05/29 06:45:19;;;;;;;17.37;2.80;;;20.30;99.90;;;;;;4980239;28;20196;-75
2023/05/29 06:47:45;;;;;;;19.30;3.10;;;20.30;99.90;;;;;;4981985;28;20284;-75
2023/05/29 06:50:11;;;;;;;13.97;2.60;;;20.40;99.90;;;;;;4960285;28;20786;-75
2023/05/29 06:52:37;;;;;;;18.20;3.47;;;20.50;99.90;;;;;;4958673;28;20706;-75
2023/05/29 06:55:05;;;;;;;11.67;2.80;;;20.50;99.90;;;;;;4956285;28;20248;-75
2023/05/29 06:57:31;;;;;;;14.30;2.60;;;20.50;99.90;;;;;;4956834;28;20213;-74
2023/05/29 06:59:58;;;;;;;12.53;2.90;;;20.40;99.90;;;;;;4957333;28;20199;-75
2023/05/29 07:02:24;;;;;;;10.70;2.83;;;20.50;99.90;;;;;;4955825;28;20229;-75
2023/05/29 07:04:51;;;;;;;16.77;3.03;;;20.50;99.90;;;;;;4958766;28;20198;-75
2023/05/29 07:07:17;;;;;;;14.77;2.87;;;20.50;99.90;;;;;;4952654;28;20601;-75
2023/05/29 07:09:44;;;;;;;18.43;2.80;;;20.50;99.90;;;;;;4958012;28;21340;-75
2023/05/29 07:12:10;;;;;;;15.70;3.17;;;20.60;99.90;;;;;;4969729;28;20194;-75
2023/05/29 07:14:36;;;;;;;12.57;2.47;;;20.70;99.90;;;;;;4941055;28;20323;-75
2023/05/29 07:17:03;;;;;;;13.67;2.80;;;20.70;99.90;;;;;;4952735;28;20991;-76
2023/05/29 07:19:29;;;;;;;10.57;2.70;;;20.70;99.90;;;;;;4954067;28;20967;-75
2023/05/29 07:21:55;;;;;;;17.73;2.83;;;20.80;99.90;;;;;;4959438;28;20873;-75
2023/05/29 07:24:21;;;;;;;8.43;2.43;;;20.90;99.90;;;;;;4961017;28;20194;-74
2023/05/29 07:26:48;;;;;;;13.63;3.07;;;20.90;99.90;;;;;;4961892;28;20290;-74
2023/05/29 07:29:16;;;;;;;13.13;3.03;;;21.00;99.90;;;;;;4963107;28;20504;-75
2023/05/29 07:31:42;;;;;;;11.63;2.27;;;21.10;99.90;;;;;;4960208;28;20193;-75
2023/05/29 07:34:09;;;;;;;12.83;3.10;;;21.20;99.90;;;;;;4958970;28;20190;-76
2023/05/29 07:36:35;;;;;;;16.77;2.97;;;21.30;99.90;;;;;;4962411;28;20191;-76
2023/05/29 07:39:02;;;;;;;12.37;2.50;;;21.30;99.90;;;;;;4961868;28;20187;-76
2023/05/29 07:41:29;;;;;;;7.83;2.60;;;21.40;99.90;;;;;;4946112;28;20787;-76
2023/05/29 07:43:56;;;;;;;15.20;2.83;;;21.50;99.90;;;;;;4955760;28;20217;-76
2023/05/29 07:46:23;;;;;;;10.45;2.42;;;21.60;99.90;;;;;;4962153;28;20598;-75
2023/05/29 07:48:49;;;;;;;8.37;2.53;;;21.60;99.90;;;;;;4964576;28;20197;-75
2023/05/29 07:51:15;;;;;;;12.80;2.70;;;21.70;99.90;;;;;;4962342;28;20442;-76
2023/05/29 07:53:46;;;;;;;9.17;2.47;;;21.80;99.90;;;;;;4962534;28;20198;-75
2023/05/29 07:56:13;;;;;;;11.10;2.60;;;21.90;99.90;;;;;;4957280;28;20216;-75
2023/05/29 07:58:41;;;;;;;11.00;2.77;;;21.90;99.90;;;;;;4953914;28;20757;-76
2023/05/29 08:01:07;;;;;;;11.07;2.53;;;21.90;99.90;;;;;;4956761;28;20225;-76
2023/05/29 08:03:33;;;;;;;9.43;2.97;;;21.90;99.90;;;;;;4958043;28;20256;-75
2023/05/29 08:06:00;;;;;;;8.85;2.63;;;22.00;99.90;;;;;;4958698;28;20191;-75
2023/05/29 08:08:26;;;;;;;12.75;2.70;;;22.00;99.90;;;;;;4953475;28;20702;-75
2023/05/29 08:10:52;;;;;;;12.63;2.92;;;22.10;99.90;;;;;;4972377;28;20187;-75
2023/05/29 08:13:18;;;;;;;11.20;2.70;;;22.10;99.90;;;;;;4959561;28;20201;-75
2023/05/29 08:15:45;;;;;;;15.02;3.13;;;22.10;99.90;;;;;;4984689;28;20715;-76
2023/05/29 08:18:11;;;;;;;9.95;3.15;;;22.20;99.90;;;;;;4982318;28;20388;-76
2023/05/29 08:20:38;;;;;;;10.50;2.65;;;22.20;99.90;;;;;;4955550;28;20197;-75
2023/05/29 08:23:04;;;;;;;13.25;2.78;;;22.20;99.90;;;;;;4958884;28;20209;-75
2023/05/29 08:25:31;;;;;;;11.23;2.58;;;22.20;99.90;;;;;;4959033;28;20190;-75
2023/05/29 08:27:58;;;;;;;9.93;2.33;;;22.30;99.90;;;;;;4961224;28;20677;-76
2023/05/29 08:30:24;;;;;;;13.90;2.45;;;22.30;99.90;;;;;;4957779;28;20253;-75
2023/05/29 08:32:51;;;;;;;10.10;2.80;;;22.40;99.90;;;;;;4962282;28;20225;-77
2023/05/29 08:35:18;;;;;;;13.52;2.95;;;22.30;99.90;;;;;;4954202;28;20222;-76
2023/05/29 08:37:44;;;;;;;16.42;3.58;;;22.30;99.90;;;;;;4957161;28;20186;-77
2023/05/29 08:40:12;;;;;;;15.40;3.55;;;22.30;99.90;;;;;;4960239;28;20183;-76
2023/05/29 08:42:52;;;;;;;15.63;3.05;;;22.40;99.90;;;;;;4974101;28;20310;-76
2023/05/29 08:45:22;;;;;;;17.70;3.70;;;22.60;99.90;;;;;;4958374;28;20298;-77
2023/05/29 08:47:53;;;;;;;25.10;3.95;;;22.70;99.90;;;;;;4946647;28;20193;-78
2023/05/29 08:50:21;;;;;;;18.67;3.78;;;22.60;99.90;;;;;;4961403;28;20194;-76
2023/05/29 08:52:48;;;;;;;14.82;3.80;;;22.60;99.90;;;;;;4961187;28;20195;-77
2023/05/29 08:55:15;;;;;;;20.50;3.95;;;22.50;99.90;;;;;;4955304;28;20194;-76
2023/05/29 08:57:43;;;;;;;23.17;4.45;;;22.50;99.90;;;;;;4963774;28;20194;-76
2023/05/29 09:00:16;;;;;;;27.05;4.10;;;22.60;99.90;;;;;;4958145;28;20654;-75
2023/05/29 09:02:45;;;;;;;23.75;4.57;;;22.70;99.90;;;;;;4973368;28;20883;-76
2023/05/29 09:05:12;;;;;;;22.45;4.03;;;22.90;99.90;;;;;;4984581;28;20182;-76
2023/05/29 09:07:39;;;;;;;24.48;4.32;;;23.10;99.90;;;;;;4971696;28;20186;-76
2023/05/29 09:10:08;;;;;;;24.63;4.63;;;23.20;99.90;;;;;;4960687;28;20296;-76
2023/05/29 09:12:36;;;;;;;22.77;5.03;;;23.20;99.90;;;;;;4960108;28;20197;-76
2023/05/29 09:15:09;;;;;;;29.63;4.90;;;23.10;99.90;;;;;;4978325;28;20187;-76
2023/05/29 09:17:35;;;;;;;28.52;5.07;;;23.00;99.90;;;;;;4950190;28;20198;-76
2023/05/29 09:20:03;;;;;;;19.45;4.30;;;23.10;99.90;;;;;;4984964;28;20185;-76
2023/05/29 09:22:29;;;;;;;31.23;5.15;;;23.10;99.90;;;;;;4960341;28;20309;-76
2023/05/29 09:24:59;;;;;;;31.90;5.25;;;23.10;99.90;;;;;;4960776;28;20186;-76
2023/05/29 09:27:26;;;;;;;29.38;5.15;;;23.10;99.90;;;;;;4956024;28;20282;-76
2023/05/29 09:29:52;;;;;;;23.25;5.70;;;23.30;99.90;;;;;;4961629;28;20200;-75
2023/05/29 09:32:18;;;;;;;24.58;4.95;;;23.50;99.90;;;;;;4954665;28;20197;-75
2023/05/29 09:34:46;;;;;;;22.92;4.68;;;23.70;99.90;;;;;;4957491;28;20225;-77
2023/05/29 09:37:13;;;;;;;31.23;4.72;;;23.80;99.90;;;;;;4955399;28;20293;-75
2023/05/29 09:39:47;;;;;;;28.33;5.22;;;23.90;99.90;;;;;;4974286;28;20230;-75
2023/05/29 09:42:15;;;;;;;27.58;4.93;;;24.00;99.90;;;;;;4954280;28;20268;-75
2023/05/29 09:44:46;;;;;;;27.48;5.55;;;24.00;99.90;;;;;;4951398;28;20190;-76
2023/05/29 09:47:18;;;;;;;28.40;4.72;;;23.90;99.90;;;;;;4952249;28;20770;-75
2023/05/29 09:49:48;;;;;;;24.00;4.68;;;23.80;99.90;;;;;;4963761;28;21299;-76
2023/05/29 09:52:20;;;;;;;19.33;4.68;;;23.70;99.90;;;;;;4961176;28;20203;-75
2023/05/29 09:54:46;;;;;;;26.40;5.03;;;23.60;99.90;;;;;;4958812;28;20216;-76
2023/05/29 09:57:17;;;;;;;21.88;4.32;;;23.60;99.90;;;;;;4979908;28;20190;-75
2023/05/29 09:59:46;;;;;;;28.45;5.22;;;23.50;99.90;;;;;;4987845;28;20201;-75
2023/05/29 10:02:15;;;;;;;30.13;4.78;;;23.60;99.90;;;;;;4941651;28;20866;-76
2023/05/29 10:04:43;;;;;;;29.67;5.85;;;23.80;99.90;;;;;;4979868;28;20186;-76
2023/05/29 10:07:35;;;;;;;23.65;4.28;;;24.00;99.90;;;;;;4963481;28;20548;-76
2023/05/29 10:10:08;;;;;;;25.45;4.65;;;24.10;99.90;;;;;;4952931;28;20294;-76
2023/05/29 10:12:48;;;;;;;26.48;5.35;;;24.20;99.90;;;;;;4953023;28;20702;-76
2023/05/29 10:15:19;;;;;;;29.58;4.90;;;24.20;99.90;;;;;;4952044;28;20199;-76
2023/05/29 10:18:12;;;;;;;21.65;4.57;;;24.10;99.90;;;;;;4957330;28;20194;-76
2023/05/29 10:20:42;;;;;;;20.13;5.03;;;24.20;99.90;;;;;;4970678;28;20565;-76
2023/05/29 10:23:11;;;;;;;25.38;5.32;;;24.20;99.90;;;;;;4953804;28;20614;-76
2023/05/29 10:25:41;;;;;;;25.98;5.28;;;24.00;99.90;;;;;;4979529;28;20193;-76
2023/05/29 10:28:07;;;;;;;24.27;4.63;;;24.10;99.90;;;;;;4962874;28;20210;-76
2023/05/29 10:31:01;;;;;;;32.75;5.20;;;24.30;99.90;;;;;;4949957;28;20281;-76
2023/05/29 10:34:21;;;;;;;37.70;5.88;;;24.30;99.90;;;;;;4965134;28;20256;-76
2023/05/29 10:37:15;;;;;;;35.70;5.78;;;24.40;99.90;;;;;;4952691;28;22088;-76
2023/05/29 10:39:41;;;;;;;36.17;6.03;;;24.50;99.90;;;;;;4957457;28;20236;-76
2023/05/29 10:42:52;;;;;;;32.58;5.65;;;24.40;99.90;;;;;;4938880;28;20289;-76
2023/05/29 10:45:35;;;;;;;23.60;4.85;;;24.40;99.90;;;;;;4965122;28;20199;-76
2023/05/29 10:48:08;;;;;;;25.13;4.70;;;24.50;99.90;;;;;;4970246;28;20190;-76
2023/05/29 10:50:45;;;;;;;23.80;4.97;;;24.50;99.90;;;;;;4939463;28;20280;-76
2023/05/29 10:53:16;;;;;;;31.48;5.57;;;24.50;99.90;;;;;;4953993;28;20197;-76
2023/05/29 10:55:45;;;;;;;29.90;5.43;;;24.50;99.90;;;;;;4959246;28;20189;-76
2023/05/29 10:58:23;;;;;;;25.85;6.00;;;24.50;99.90;;;;;;4953758;28;20194;-76
2023/05/29 11:00:53;;;;;;;29.23;5.70;;;24.50;99.90;;;;;;4956187;28;20257;-75
2023/05/29 11:03:32;;;;;;;38.55;5.68;;;24.50;99.90;;;;;;4982027;28;20296;-76
2023/05/29 11:06:05;;;;;;;26.77;6.20;;;24.50;99.90;;;;;;4950960;28;20228;-76
2023/05/29 11:08:48;;;;;;;39.75;6.57;;;24.50;99.90;;;;;;4947468;28;20190;-76
2023/05/29 11:11:28;;;;;;;26.05;5.90;;;24.50;99.90;;;;;;4954605;28;20541;-76
2023/05/29 11:14:00;;;;;;;30.42;5.93;;;24.50;99.90;;;;;;4956000;28;20199;-76
2023/05/29 11:16:29;;;;;;;38.03;5.35;;;24.50;99.90;;;;;;4951700;28;20680;-76
2023/05/29 11:18:58;;;;;;;30.83;6.32;;;24.50;99.90;;;;;;4968838;28;20199;-76
2023/05/29 11:21:49;;;;;;;25.77;6.00;;;24.50;99.90;;;;;;4953774;28;20206;-76
2023/05/29 11:24:29;;;;;;;31.15;5.72;;;24.40;99.90;;;;;;4965705;28;20783;-75
2023/05/29 11:27:00;;;;;;;27.38;5.78;;;24.30;99.90;;;;;;4958553;28;20190;-76
2023/05/29 11:29:29;;;;;;;20.95;5.07;;;24.30;99.90;;;;;;4952845;28;20190;-76
2023/05/29 11:32:05;;;;;;;30.85;6.75;;;24.30;99.90;;;;;;4958369;28;20292;-76
2023/05/29 11:34:32;;;;;;;32.15;6.35;;;24.30;99.90;;;;;;4953078;28;20605;-76
2023/05/29 11:37:03;;;;;;;36.22;7.07;;;24.30;99.90;;;;;;4961402;28;20197;-76
2023/05/29 11:39:30;;;;;;;38.42;6.32;;;24.30;99.90;;;;;;4960461;28;20205;-76
2023/05/29 11:41:57;;;;;;;37.97;6.65;;;24.30;99.90;;;;;;4956402;28;20202;-76
2023/05/29 11:44:26;;;;;;;29.70;5.13;;;24.30;99.90;;;;;;4961447;28;20602;-76
2023/05/29 11:47:04;;;;;;;38.00;6.22;;;24.30;99.90;;;;;;4961253;28;22193;-76
2023/05/29 11:49:36;;;;;;;31.27;6.03;;;24.30;99.90;;;;;;4956199;28;20186;-76
2023/05/29 11:52:14;;;;;;;31.42;5.35;;;24.40;99.90;;;;;;4983761;28;20232;-76
2023/05/29 11:54:46;;;;;;;32.60;5.95;;;24.40;99.90;;;;;;4989747;28;20194;-76
2023/05/29 11:57:19;;;;;;;30.75;6.10;;;24.40;99.90;;;;;;4972414;28;20228;-75
2023/05/29 11:59:45;;;;;;;32.40;5.88;;;24.40;99.90;;;;;;4960316;28;20249;-76
2023/05/29 12:02:11;;;;;;;30.80;5.60;;;24.40;99.90;;;;;;4953578;28;20334;-75
2023/05/29 12:04:38;;;;;;;35.70;6.03;;;24.40;99.90;;;;;;4988365;28;20197;-76
2023/05/29 12:07:18;;;;;;;31.85;6.18;;;24.50;99.90;;;;;;4952228;28;21066;-76
2023/05/29 12:09:44;;;;;;;33.25;5.63;;;24.40;99.90;;;;;;4981820;28;20194;-75
2023/05/29 12:12:10;;;;;;;33.53;6.20;;;24.40;99.90;;;;;;4959580;28;20190;-75
2023/05/29 12:14:37;;;;;;;32.58;5.32;;;24.40;99.90;;;;;;4969061;28;20187;-76
2023/05/29 12:17:04;;;;;;;37.47;6.38;;;24.40;99.90;;;;;;4980896;28;20810;-76
2023/05/29 12:19:31;;;;;;;31.35;6.35;;;24.50;99.90;;;;;;4956268;28;20186;-76
2023/05/29 12:21:57;;;;;;;25.08;5.72;;;24.50;99.90;;;;;;4961203;28;20233;-75
2023/05/29 12:24:24;;;;;;;36.92;7.25;;;24.40;99.90;;;;;;4959549;28;20234;-76
2023/05/29 12:26:50;;;;;;;32.92;7.13;;;24.30;99.90;;;;;;4962334;28;20199;-76
2023/05/29 12:29:17;;;;;;;30.77;6.70;;;24.30;99.90;;;;;;4952268;28;20182;-75
2023/05/29 12:31:43;;;;;;;42.38;7.43;;;24.40;99.90;;;;;;4959517;28;20548;-76
2023/05/29 12:34:12;;;;;;;37.38;7.28;;;24.40;99.90;;;;;;4957480;28;20193;-76
2023/05/29 12:36:45;;;;;;;40.80;6.50;;;24.40;99.90;;;;;;4973726;28;20191;-75
2023/05/29 12:39:11;;;;;;;42.63;6.22;;;24.40;99.90;;;;;;4968798;28;20230;-75
2023/05/29 12:41:39;;;;;;;39.08;7.90;;;24.40;99.90;;;;;;4963402;28;20190;-76
2023/05/29 12:44:08;;;;;;;44.15;7.07;;;24.40;99.90;;;;;;4986101;28;20234;-75